createdAt,value
2023-03-06T00:03:27.112Z,0.51
2023-03-06T00:07:27.246Z,0.52
2023-03-06T00:11:27.465Z,0.51
2023-03-06T00:15:27.704Z,0.51
2023-03-06T00:19:27.889Z,0.51
2023-03-06T00:23:28.075Z,0.52
2023-03-06T00:27:28.325Z,0.51
2023-03-06T00:31:28.546Z,0.53
2023-03-06T00:35:28.500Z,0.52
2023-03-06T00:39:28.476Z,0.52
2023-03-06T00:43:28.427Z,0.52
2023-03-06T00:47:28.338Z,0.51
2023-03-06T00:51:28.350Z,0.52
2023-03-06T00:55:28.287Z,0.52
2023-03-06T00:59:28.264Z,0.51
2023-03-06T01:03:28.232Z,0.52
2023-03-06T01:07:28.188Z,0.52
2023-03-06T01:11:28.143Z,0.52
2023-03-06T01:15:28.105Z,0.51
2023-03-06T01:19:28.058Z,0.53
2023-03-06T01:23:28.038Z,0.52
2023-03-06T01:27:28.009Z,0.51
2023-03-06T01:31:27.990Z,0.52
2023-03-06T01:35:27.948Z,0.51
2023-03-06T01:39:27.888Z,0.51
2023-03-06T01:43:27.846Z,0.52
2023-03-06T01:47:27.835Z,0.51
2023-03-06T01:51:27.914Z,0.52
2023-03-06T01:55:27.902Z,0.52
2023-03-06T01:59:27.842Z,0.53
2023-03-06T02:03:27.805Z,0.52
2023-03-06T02:07:27.776Z,0.51
2023-03-06T02:11:27.797Z,0.51
2023-03-06T02:15:27.677Z,0.51
2023-03-06T02:19:27.671Z,0.51
2023-03-06T02:23:27.610Z,0.51
2023-03-06T02:27:27.594Z,0.51
2023-03-06T02:31:27.505Z,0.51
2023-03-06T02:35:27.547Z,0.52
2023-03-06T02:39:27.474Z,0.52
2023-03-06T02:43:27.432Z,0.51
2023-03-06T02:47:27.395Z,0.52
2023-03-06T02:51:27.357Z,0.51
2023-03-06T02:55:27.328Z,0.51
2023-03-06T02:59:27.263Z,0.52
2023-03-06T03:03:27.270Z,0.51
2023-03-06T03:07:27.401Z,0.51
2023-03-06T03:11:27.366Z,0.51
2023-03-06T03:15:27.327Z,0.52
2023-03-06T03:19:27.273Z,0.52
2023-03-06T03:23:27.244Z,0.52
2023-03-06T03:27:27.203Z,0.52
2023-03-06T03:31:27.243Z,0.51
2023-03-06T03:35:27.177Z,0.52
2023-03-06T03:39:27.141Z,0.51
2023-03-06T03:43:27.037Z,0.52
2023-03-06T03:47:27.041Z,0.50
2023-03-06T03:51:27.020Z,0.51
2023-03-06T03:55:27.162Z,0.51
2023-03-06T03:59:27.326Z,0.50
2023-03-06T04:03:27.559Z,0.52
2023-03-06T04:07:27.710Z,0.52
2023-03-06T04:11:27.946Z,0.51
2023-03-06T04:15:28.756Z,0.52
2023-03-06T04:19:28.088Z,0.52
2023-03-06T04:23:28.092Z,0.51
2023-03-06T04:27:28.026Z,0.52
2023-03-06T04:31:28.011Z,0.51
2023-03-06T04:35:28.010Z,0.52
2023-03-06T04:39:27.917Z,0.52
2023-03-06T04:43:27.858Z,0.53
2023-03-06T04:47:27.847Z,0.51
2023-03-06T04:51:27.764Z,0.51
2023-03-06T04:55:27.797Z,0.53
2023-03-06T04:59:27.991Z,0.52
2023-03-06T05:03:27.923Z,0.52
2023-03-06T05:07:27.914Z,0.52
2023-03-06T05:11:27.853Z,0.52
2023-03-06T05:15:27.821Z,0.53
2023-03-06T05:19:27.799Z,0.53
2023-03-06T05:23:27.779Z,0.53
2023-03-06T05:27:27.727Z,0.52
2023-03-06T05:31:27.770Z,0.52
2023-03-06T05:35:27.662Z,0.53
2023-03-06T05:39:27.593Z,0.52
2023-03-06T05:43:27.680Z,0.53
2023-03-06T05:47:27.653Z,0.54
2023-03-06T05:51:27.615Z,0.52
2023-03-06T05:55:27.571Z,0.50
2023-03-06T05:59:27.577Z,0.51
2023-03-06T06:03:27.582Z,0.53
2023-03-06T06:07:27.453Z,0.54
2023-03-06T06:11:27.414Z,0.57
2023-03-06T06:15:27.394Z,0.60
2023-03-06T06:19:27.363Z,0.65
2023-03-06T06:23:27.494Z,0.67
2023-03-06T06:27:27.457Z,0.72
2023-03-06T06:31:27.460Z,0.76
2023-03-06T06:35:27.407Z,0.78
2023-03-06T06:39:27.322Z,0.79
2023-03-06T06:43:27.331Z,0.74
2023-03-06T06:47:27.437Z,0.75
2023-03-06T06:51:27.368Z,0.79
2023-03-06T06:55:27.193Z,0.69
2023-03-06T06:59:27.367Z,0.86
2023-03-06T07:03:27.344Z,1.09
2023-03-06T07:07:27.322Z,1.16
2023-03-06T07:11:27.028Z,1.28
2023-03-06T07:15:27.126Z,1.33
2023-03-06T07:19:27.325Z,1.50
2023-03-06T07:23:27.374Z,1.53
2023-03-06T07:27:27.519Z,1.71
2023-03-06T07:31:27.895Z,1.77
2023-03-06T07:35:27.568Z,1.76
2023-03-06T07:39:27.870Z,1.88
2023-03-06T07:43:27.566Z,1.95
2023-03-06T07:47:27.840Z,1.95
2023-03-06T07:51:27.849Z,2.03
2023-03-06T07:55:27.876Z,2.07
2023-03-06T07:59:27.597Z,2.20
2023-03-06T08:03:27.556Z,2.35
2023-03-06T08:07:27.550Z,2.29
2023-03-06T08:11:27.863Z,2.36
2023-03-06T08:15:27.470Z,2.38
2023-03-06T08:19:27.949Z,2.49
2023-03-06T08:23:27.398Z,2.50
2023-03-06T08:27:27.351Z,2.56
2023-03-06T08:31:27.352Z,2.64
2023-03-06T08:35:27.282Z,2.66
2023-03-06T08:39:27.249Z,2.64
2023-03-06T08:43:27.379Z,2.68
2023-03-06T08:47:27.451Z,2.58
2023-03-06T08:51:27.883Z,1.35
2023-03-06T08:55:27.865Z,1.25
2023-03-06T08:59:27.775Z,1.34
2023-03-06T09:03:27.761Z,1.32
2023-03-06T09:07:27.755Z,1.33
2023-03-06T09:11:27.740Z,1.80
2023-03-06T09:15:27.707Z,1.40
2023-03-06T09:19:27.692Z,1.37
2023-03-06T09:23:27.694Z,1.38
2023-03-06T09:27:27.684Z,1.43
2023-03-06T09:31:27.652Z,1.42
2023-03-06T09:35:27.666Z,1.41
2023-03-06T09:39:27.875Z,1.42
2023-03-06T09:43:27.882Z,1.69
2023-03-06T09:47:28.404Z,2.19
2023-03-06T09:51:28.398Z,2.58
2023-03-06T09:55:28.038Z,2.80
2023-03-06T09:59:28.381Z,2.82
2023-03-06T10:03:27.976Z,2.82
2023-03-06T10:07:28.418Z,2.55
2023-03-06T10:11:27.889Z,2.48
2023-03-06T10:15:27.865Z,2.55
2023-03-06T10:19:27.896Z,2.69
2023-03-06T10:23:27.898Z,2.72
2023-03-06T10:27:27.745Z,2.87
2023-03-06T10:31:28.002Z,2.85
2023-03-06T10:35:30.357Z,3.03
2023-03-06T10:39:27.659Z,2.96
2023-03-06T10:43:27.938Z,2.87
2023-03-06T10:47:27.575Z,3.01
2023-03-06T10:51:27.916Z,3.00
2023-03-06T10:55:27.938Z,3.11
2023-03-06T10:59:27.451Z,3.15
2023-03-06T11:03:27.417Z,3.19
2023-03-06T11:07:28.267Z,3.16
2023-03-06T11:11:37.059Z,3.37
2023-03-06T11:15:28.288Z,3.37
2023-03-06T11:19:27.286Z,3.21
2023-03-06T11:23:27.434Z,3.16
2023-03-06T11:27:27.415Z,3.32
2023-03-06T11:31:27.974Z,3.47
2023-03-06T11:35:27.815Z,3.31
2023-03-06T11:39:27.929Z,3.39
2023-03-06T11:43:27.937Z,3.55
2023-03-06T11:47:27.644Z,2.87
2023-03-06T11:51:27.646Z,2.41
2023-03-06T11:55:27.574Z,1.99
2023-03-06T11:59:27.573Z,1.60
2023-03-06T12:03:27.506Z,1.50
2023-03-06T12:07:27.474Z,1.31
2023-03-06T12:11:28.036Z,1.25
2023-03-06T12:15:27.404Z,1.07
2023-03-06T12:19:27.381Z,0.94
2023-03-06T12:23:27.343Z,0.94
2023-03-06T12:27:27.303Z,0.86
2023-03-06T12:31:27.502Z,0.72
2023-03-06T12:35:27.471Z,0.62
2023-03-06T12:39:27.458Z,0.56
2023-03-06T12:43:27.260Z,0.56
2023-03-06T12:47:27.233Z,0.74
2023-03-06T12:51:27.469Z,0.96
2023-03-06T12:55:27.194Z,1.04
2023-03-06T12:59:27.104Z,1.31
2023-03-06T13:03:27.103Z,1.22
2023-03-06T13:07:27.057Z,1.37
2023-03-06T13:11:27.015Z,1.18
2023-03-06T13:15:26.969Z,1.37
2023-03-06T13:19:26.960Z,1.29
2023-03-06T13:23:26.969Z,0.94
2023-03-06T13:27:26.990Z,0.67
2023-03-06T13:31:28.305Z,0.63
2023-03-06T13:35:27.114Z,0.55
2023-03-06T13:39:27.264Z,0.45
2023-03-06T13:43:27.595Z,0.51
2023-03-06T13:47:27.228Z,0.53
2023-03-06T13:51:27.257Z,0.58
2023-03-06T13:55:27.300Z,0.52
2023-03-06T13:59:27.330Z,0.58
2023-03-06T14:03:27.393Z,0.55
2023-03-06T14:07:27.461Z,0.57
2023-03-06T14:11:27.577Z,0.56
2023-03-06T14:15:27.721Z,0.59
2023-03-06T14:19:27.833Z,0.68
2023-03-06T14:23:28.002Z,0.57
2023-03-06T14:27:28.137Z,0.50
2023-03-06T14:31:28.372Z,0.61
2023-03-06T14:35:28.601Z,0.56
2023-03-06T14:39:28.755Z,0.61
2023-03-06T14:43:28.748Z,0.54
2023-03-06T14:47:28.812Z,0.53
2023-03-06T14:51:28.678Z,0.59
2023-03-06T14:55:28.609Z,0.68
2023-03-06T14:59:28.600Z,0.58
2023-03-06T15:03:29.054Z,0.57
2023-03-06T15:07:28.530Z,0.69
2023-03-06T15:11:28.476Z,0.50
2023-03-06T15:15:28.509Z,0.74
2023-03-06T15:19:28.423Z,0.72
2023-03-06T15:23:28.523Z,0.82
2023-03-06T15:27:28.613Z,0.86
2023-03-06T15:31:28.861Z,0.78
2023-03-06T15:35:28.946Z,0.86
2023-03-06T15:39:28.882Z,1.02
2023-03-06T15:43:28.861Z,0.72
2023-03-06T15:47:28.903Z,0.76
2023-03-06T15:51:28.928Z,0.82
2023-03-06T15:55:28.913Z,0.68
2023-03-06T15:59:28.957Z,0.69
2023-03-06T16:03:28.931Z,0.75
2023-03-06T16:07:28.949Z,0.75
2023-03-06T16:11:35.372Z,0.84
2023-03-06T16:15:29.924Z,0.68
2023-03-06T16:19:28.920Z,0.67
2023-03-06T16:23:28.844Z,0.69
2023-03-06T16:27:28.824Z,0.75
2023-03-06T16:31:28.806Z,0.73
2023-03-06T16:35:28.834Z,0.64
2023-03-06T16:39:28.903Z,0.72
2023-03-06T16:43:28.936Z,0.77
2023-03-06T16:47:29.045Z,0.78
2023-03-06T16:51:29.156Z,0.72
2023-03-06T16:55:29.256Z,0.72
2023-03-06T16:59:29.362Z,0.75
2023-03-06T17:03:29.550Z,0.75
2023-03-06T17:07:29.593Z,0.72
2023-03-06T17:11:29.743Z,0.68
2023-03-06T17:15:29.865Z,0.65
2023-03-06T17:19:29.978Z,0.74
2023-03-06T17:23:30.145Z,0.74
2023-03-06T17:27:30.288Z,0.72
2023-03-06T17:31:30.539Z,0.66
2023-03-06T17:35:30.707Z,0.81
2023-03-06T17:39:30.814Z,0.97
2023-03-06T17:43:31.001Z,0.89
2023-03-06T17:47:31.161Z,0.80
2023-03-06T17:51:31.362Z,0.72
2023-03-06T17:55:31.553Z,0.69
2023-03-06T17:59:31.545Z,0.72
2023-03-06T18:03:31.480Z,0.56
2023-03-06T18:07:31.454Z,0.51
2023-03-06T18:11:31.405Z,0.50
2023-03-06T18:15:31.400Z,0.50
2023-03-06T18:19:31.340Z,0.51
2023-03-06T18:23:31.276Z,0.50
2023-03-06T18:27:31.282Z,0.52
2023-03-06T18:31:34.075Z,0.50
2023-03-06T18:35:31.242Z,0.55
2023-03-06T18:39:31.132Z,0.60
2023-03-06T18:43:31.132Z,0.59
2023-03-06T18:47:31.103Z,0.58
2023-03-06T18:51:31.056Z,0.58
2023-03-06T18:55:31.020Z,0.57
2023-03-06T18:59:30.973Z,0.55
2023-03-06T19:03:30.941Z,0.51
2023-03-06T19:07:30.933Z,0.63
2023-03-06T19:11:30.891Z,0.55
2023-03-06T19:15:30.885Z,0.51
2023-03-06T19:19:30.809Z,0.50
2023-03-06T19:23:31.112Z,0.51
2023-03-06T19:27:30.761Z,0.69
2023-03-06T19:31:30.790Z,0.80
2023-03-06T19:35:30.703Z,0.73
2023-03-06T19:39:30.652Z,0.68
2023-03-06T19:43:30.600Z,0.62
2023-03-06T19:47:30.556Z,0.92
2023-03-06T19:51:30.669Z,0.76
2023-03-06T19:55:30.810Z,0.63
2023-03-06T19:59:31.016Z,0.59
2023-03-06T20:03:31.216Z,0.51
2023-03-06T20:07:31.413Z,0.51
2023-03-06T20:11:31.646Z,0.60
2023-03-06T20:15:31.678Z,0.58
2023-03-06T20:19:31.555Z,0.50
2023-03-06T20:23:31.509Z,0.50
2023-03-06T20:27:31.505Z,0.55
2023-03-06T20:31:31.614Z,0.58
2023-03-06T20:35:31.451Z,0.51
2023-03-06T20:39:31.397Z,0.50
2023-03-06T20:43:31.360Z,0.63
2023-03-06T20:47:31.298Z,0.69
2023-03-06T20:51:31.362Z,0.66
2023-03-06T20:55:31.619Z,0.67
2023-03-06T20:59:31.721Z,0.64
2023-03-06T21:03:31.830Z,0.63
2023-03-06T21:07:31.989Z,0.67
2023-03-06T21:11:32.177Z,0.67
2023-03-06T21:15:32.334Z,0.73
2023-03-06T21:19:32.449Z,0.69
2023-03-06T21:23:32.516Z,0.67
2023-03-06T21:27:32.573Z,0.65
2023-03-06T21:31:32.596Z,0.61
2023-03-06T21:35:32.577Z,0.55
2023-03-06T21:39:32.485Z,0.51
2023-03-06T21:43:32.592Z,0.53
2023-03-06T21:47:32.540Z,0.57
2023-03-06T21:51:32.551Z,0.64
2023-03-06T21:55:32.543Z,0.66
2023-03-06T21:59:32.556Z,0.66
2023-03-06T22:03:32.564Z,0.77
2023-03-06T22:07:32.555Z,0.83
2023-03-06T22:11:32.640Z,1.11
2023-03-06T22:15:32.668Z,1.18
2023-03-06T22:19:32.710Z,1.17
2023-03-06T22:23:32.763Z,1.09
2023-03-06T22:27:32.841Z,1.14
2023-03-06T22:31:32.971Z,1.20
2023-03-06T22:35:33.070Z,1.19
2023-03-06T22:39:33.112Z,1.30
2023-03-06T22:43:33.243Z,1.33
2023-03-06T22:47:33.369Z,1.29
2023-03-06T22:51:33.501Z,1.25
2023-03-06T22:55:33.661Z,1.25
2023-03-06T22:59:33.832Z,1.26
2023-03-06T23:03:34.039Z,1.19
2023-03-06T23:07:34.242Z,1.28
2023-03-06T23:11:34.439Z,1.20
2023-03-06T23:15:34.677Z,1.25
2023-03-06T23:19:34.823Z,1.30
2023-03-06T23:23:34.808Z,1.32
2023-03-06T23:27:34.754Z,1.32
2023-03-06T23:31:34.706Z,1.42
2023-03-06T23:35:34.763Z,1.51
2023-03-06T23:39:34.650Z,1.65
2023-03-06T23:43:34.632Z,1.84
2023-03-06T23:47:34.604Z,1.72
2023-03-06T23:51:34.535Z,1.68
2023-03-06T23:55:34.520Z,1.68
2023-03-06T23:59:34.543Z,1.58
